Sousse, Tunisia
Current Conditions -  °F | °C
As of 5:30 AM on Thursday 27 Nov 2014 (Local Time) from DTMB Reporting Station
Haze Haze  
Wind Chill: 17°   Ceiling: NA
Heat Index: 17°   Visibility: 2.4mi
Dew Point: 17°   Wind: 5mph
Humidity: 100%   Direction: 280°W
Pressure: 29.91"   Gusts: NA
Location:  35.82°N, 10.63°E
Report Text: DTMB 270430Z AUTO 28004KT 3900NDV BR /// 17/17 Q1013
Loading
Personal Weather Stations






























Interactive Weather Map New forecast layout! Learn more

10-Day Weather Forecast

Advertisements
Track Severe Weather on mobile